Time;durP1;ratioP1;P1;durP2;ratioP2;P2;SDS_P1;SDS_P2;PMS_P1;PMS_P2;Temp;Humidity;BMP_temperature;BMP_pressure;BME280_temperature;BME280_humidity;BME280_pressure;Samples;Min_cycle;Max_cycle;Signal;HPM_P1;HPM_P2
2022/12/10 00:00:24;;;;;;;;;;;;;;;11.94;71.98;100464.47;1256744;23;617;-70
2022/12/10 00:01:15;;;;;;;;;;;;;;;11.91;72.36;100464.69;1255372;23;724;-70
2022/12/10 00:02:05;;;;;;;;;;;;;;;11.91;71.79;100466.50;1261502;23;657;-70
2022/12/10 00:02:56;;;;;;;;;;;;;;;11.92;72.05;100463.72;1261472;23;693;-70
2022/12/10 00:03:46;;;;;;;;;;;;;;;11.92;71.57;100465.53;1261378;23;618;-70
2022/12/10 00:04:37;;;;;;;;;;;;;;;11.93;72.04;100464.56;1261395;23;665;-70
2022/12/10 00:05:27;;;;;;;;;;;;;;;11.89;70.63;100468.44;1261616;23;630;-70
2022/12/10 00:06:17;;;;;;;;;;;;;;;11.83;72.28;100467.06;1261514;23;661;-69
2022/12/10 00:07:08;;;;;;;;;;;;;;;11.84;71.63;100466.13;1261446;23;625;-69
2022/12/10 00:07:58;;;;;;;;;;;;;;;11.87;72.40;100465.03;1261362;23;1905;-69
2022/12/10 00:08:49;;;;;;;;;;;;;;;11.90;71.94;100459.47;1260881;23;703;-69
2022/12/10 00:09:39;;;;;;;;;;;;;;;11.92;72.42;100461.06;1261412;23;735;-69
2022/12/10 00:10:30;;;;;;;;;;;;;;;11.92;72.33;100473.56;1261533;23;635;-69
2022/12/10 00:11:20;;;;;;;;;;;;;;;11.93;72.43;100475.25;1261529;23;674;-69
2022/12/10 00:12:10;;;;;;;;;;;;;;;11.90;71.88;100473.66;1262360;23;661;-69
2022/12/10 00:13:01;;;;;;;;;;;;;;;11.90;72.27;100464.81;1261323;23;614;-69
2022/12/10 00:13:51;;;;;;;;;;;;;;;11.89;71.65;100477.31;1261438;23;647;-69
2022/12/10 00:14:42;;;;;;;;;;;;;;;11.86;72.05;100471.34;1262249;23;642;-69
2022/12/10 00:15:32;;;;;;;;;;;;;;;11.88;71.78;100472.94;1261406;23;631;-69
2022/12/10 00:16:23;;;;;;;;;;;;;;;11.86;71.50;100474.84;1256892;23;638;-69
2022/12/10 00:17:13;;;;;;;;;;;;;;;11.84;72.39;100471.44;1249076;23;611;-70
2022/12/10 00:18:03;;;;;;;;;;;;;;;11.84;71.74;100482.13;1252427;23;658;-69
2022/12/10 00:18:54;;;;;;;;;;;;;;;11.86;72.06;100469.53;1259824;23;701;-69
2022/12/10 00:19:44;;;;;;;;;;;;;;;11.87;72.22;100468.56;1261575;23;752;-69
2022/12/10 00:20:35;;;;;;;;;;;;;;;11.88;72.13;100472.94;1261391;23;610;-69
2022/12/10 00:21:25;;;;;;;;;;;;;;;11.86;71.51;100476.69;1262486;23;681;-69
2022/12/10 00:22:16;;;;;;;;;;;;;;;11.84;71.95;100476.78;1261445;23;629;-69
2022/12/10 00:23:06;;;;;;;;;;;;;;;11.82;71.69;100465.41;1261031;23;630;-70
2022/12/10 00:23:56;;;;;;;;;;;;;;;11.81;72.29;100471.72;1261234;23;654;-69
2022/12/10 00:24:47;;;;;;;;;;;;;;;11.79;72.53;100476.31;1262255;23;724;-69
2022/12/10 00:25:37;;;;;;;;;;;;;;;11.84;72.25;100476.78;1261447;23;622;-70
2022/12/10 00:26:28;;;;;;;;;;;;;;;11.81;71.52;100472.56;1261435;23;654;-69
2022/12/10 00:27:18;;;;;;;;;;;;;;;11.83;71.58;100469.75;1261533;23;662;-69
2022/12/10 00:28:08;;;;;;;;;;;;;;;11.79;72.21;100476.31;1261344;23;1893;-69
2022/12/10 00:28:59;;;;;;;;;;;;;;;11.78;72.32;100471.94;1261419;23;697;-70
2022/12/10 00:29:49;;;;;;;;;;;;;;;11.80;72.42;100475.34;1262406;23;637;-69
2022/12/10 00:30:40;;;;;;;;;;;;;;;11.79;71.72;100466.50;1261389;23;650;-70
2022/12/10 00:31:30;;;;;;;;;;;;;;;11.80;72.25;100475.34;1261468;23;661;-69
2022/12/10 00:32:20;;;;;;;;;;;;;;;11.80;71.51;100481.53;1261508;23;652;-69
2022/12/10 00:33:11;;;;;;;;;;;;;;;11.79;71.63;100465.63;1262300;23;630;-69
2022/12/10 00:34:01;;;;;;;;;;;;;;;11.76;71.76;100471.19;1261315;23;737;-69
2022/12/10 00:34:52;;;;;;;;;;;;;;;11.74;71.86;100465.09;1261224;23;610;-69
2022/12/10 00:35:42;;;;;;;;;;;;;;;11.69;70.79;100467.25;1261393;23;607;-69
2022/12/10 00:36:33;;;;;;;;;;;;;;;11.70;72.04;100468.94;1261485;23;622;-69
2022/12/10 00:37:23;;;;;;;;;;;;;;;11.63;71.17;100462.41;1261455;23;666;-70
2022/12/10 00:38:13;;;;;;;;;;;;;;;11.56;70.70;100466.47;1261369;23;601;-69
2022/12/10 00:39:04;;;;;;;;;;;;;;;11.61;72.36;100475.84;1262277;23;629;-69
2022/12/10 00:39:54;;;;;;;;;;;;;;;11.66;71.44;100464.81;1262225;23;641;-69
2022/12/10 00:40:45;;;;;;;;;;;;;;;11.71;72.48;100470.66;1261522;23;653;-71
2022/12/10 00:41:35;;;;;;;;;;;;;;;11.75;71.44;100469.47;1261361;23;610;-69
2022/12/10 00:42:26;;;;;;;;;;;;;;;11.71;71.26;100471.50;1261425;23;653;-70
2022/12/10 00:43:16;;;;;;;;;;;;;;;11.60;70.89;100474.16;1261344;23;596;-71
2022/12/10 00:44:07;;;;;;;;;;;;;;;11.63;72.45;100467.72;1261453;23;630;-71
2022/12/10 00:44:57;;;;;;;;;;;;;;;11.68;72.42;100470.88;1261339;23;701;-69
2022/12/10 00:45:47;;;;;;;;;;;;;;;11.69;71.92;100465.44;1262293;23;637;-69
2022/12/10 00:46:38;;;;;;;;;;;;;;;11.72;72.09;100472.34;1261308;23;649;-71
2022/12/10 00:47:28;;;;;;;;;;;;;;;11.73;72.37;100468.72;1262353;23;613;-68
2022/12/10 00:48:19;;;;;;;;;;;;;;;11.75;71.69;100472.13;1261296;23;1885;-72
2022/12/10 00:49:09;;;;;;;;;;;;;;;11.75;72.00;100470.31;1262239;23;637;-71
2022/12/10 00:50:00;;;;;;;;;;;;;;;11.80;72.21;100475.34;1256857;23;692;-71
2022/12/10 00:50:50;;;;;;;;;;;;;;;11.78;71.97;100471.94;1249170;23;674;-71
2022/12/10 00:51:40;;;;;;;;;;;;;;;11.77;72.38;100472.91;1253957;23;622;-71
2022/12/10 00:52:31;;;;;;;;;;;;;;;11.73;71.82;100474.06;1259875;23;629;-70
2022/12/10 00:53:21;;;;;;;;;;;;;;;11.73;71.58;100474.06;1261472;23;970;-70
2022/12/10 00:54:12;;;;;;;;;;;;;;;11.66;70.16;100470.13;1261423;23;626;-70
2022/12/10 00:55:02;;;;;;;;;;;;;;;11.64;71.39;100477.44;1261270;23;662;-71
2022/12/10 00:55:53;;;;;;;;;;;;;;;11.64;72.21;100470.28;1261415;23;613;-71
2022/12/10 00:56:43;;;;;;;;;;;;;;;11.62;71.56;100477.56;1262227;23;653;-71
2022/12/10 00:57:34;;;;;;;;;;;;;;;11.56;71.91;100479.81;1261458;23;669;-70
2022/12/10 00:58:24;;;;;;;;;;;;;;;11.46;71.57;100467.16;1261391;23;634;-71
2022/12/10 00:59:14;;;;;;;;;;;;;;;11.49;71.96;100474.94;1261431;23;646;-71
2022/12/10 01:00:05;;;;;;;;;;;;;;;11.51;71.47;100474.81;1261387;23;673;-71
2022/12/10 01:00:55;;;;;;;;;;;;;;;11.49;70.57;100472.25;1261320;23;636;-71
2022/12/10 01:01:46;;;;;;;;;;;;;;;11.45;70.92;100473.47;1261438;23;707;-71
2022/12/10 01:02:36;;;;;;;;;;;;;;;11.54;71.84;100474.59;1261279;23;667;-70
2022/12/10 01:03:27;;;;;;;;;;;;;;;11.59;72.53;100474.25;1261506;23;638;-71
2022/12/10 01:04:17;;;;;;;;;;;;;;;11.63;72.31;100478.41;1261259;23;614;-71
2022/12/10 01:05:07;;;;;;;;;;;;;;;11.64;71.73;100477.44;1261324;23;645;-71
2022/12/10 01:05:58;;;;;;;;;;;;;;;11.64;72.40;100480.13;1261309;23;668;-70
2022/12/10 01:06:48;;;;;;;;;;;;;;;11.61;71.87;100478.53;1261733;23;653;-70
2022/12/10 01:07:39;;;;;;;;;;;;;;;11.59;71.63;100487.59;1262242;23;577;-70
2022/12/10 01:08:29;;;;;;;;;;;;;;;11.63;72.09;100478.41;1262335;23;666;-70
2022/12/10 01:09:20;;;;;;;;;;;;;;;11.65;71.53;100481.78;1262270;23;649;-70
2022/12/10 01:10:10;;;;;;;;;;;;;;;11.69;71.56;100481.44;1261357;23;626;-71
2022/12/10 01:11:00;;;;;;;;;;;;;;;11.70;72.17;100482.28;1261444;23;878;-70
2022/12/10 01:11:51;;;;;;;;;;;;;;;11.72;71.39;100491.03;1261242;23;642;-68
2022/12/10 01:12:41;;;;;;;;;;;;;;;11.68;72.00;100481.56;1261325;23;701;-70
2022/12/10 01:13:32;;;;;;;;;;;;;;;11.66;71.72;100489.69;1261389;23;633;-71
2022/12/10 01:14:22;;;;;;;;;;;;;;;11.67;72.04;100487.84;1261338;23;637;-71
2022/12/10 01:15:13;;;;;;;;;;;;;;;11.67;71.63;100493.19;1261333;23;610;-70
2022/12/10 01:16:03;;;;;;;;;;;;;;;11.64;71.41;100490.78;1262247;23;641;-69
2022/12/10 01:16:53;;;;;;;;;;;;;;;11.62;72.05;100492.72;1261325;23;611;-69
2022/12/10 01:17:44;;;;;;;;;;;;;;;11.61;72.23;100496.34;1261390;23;626;-69
2022/12/10 01:18:34;;;;;;;;;;;;;;;11.63;71.65;100491.75;1262266;23;598;-69
2022/12/10 01:19:25;;;;;;;;;;;;;;;11.63;72.41;100497.94;1261419;23;622;-70
2022/12/10 01:20:15;;;;;;;;;;;;;;;11.62;72.40;100496.25;1261451;23;618;-69
2022/12/10 01:21:06;;;;;;;;;;;;;;;11.66;71.78;100496.84;1260651;23;637;-71
2022/12/10 01:21:56;;;;;;;;;;;;;;;11.57;71.39;100506.41;1262110;23;665;-69
2022/12/10 01:22:46;;;;;;;;;;;;;;;11.58;71.81;100501.91;1261307;23;654;-69
2022/12/10 01:23:37;;;;;;;;;;;;;;;11.59;72.55;100503.63;1261399;23;688;-71
2022/12/10 01:24:27;;;;;;;;;;;;;;;11.57;71.78;100510.88;1261375;23;744;-71
2022/12/10 01:25:18;;;;;;;;;;;;;;;11.59;72.22;100509.81;1261448;23;626;-70
2022/12/10 01:26:08;;;;;;;;;;;;;;;11.60;72.09;100506.16;1261343;23;638;-68
2022/12/10 01:26:59;;;;;;;;;;;;;;;11.63;71.73;100510.44;1261244;23;642;-70
2022/12/10 01:27:49;;;;;;;;;;;;;;;11.57;70.80;100505.53;1261413;23;666;-70
2022/12/10 01:28:39;;;;;;;;;;;;;;;11.58;71.92;100500.09;1261505;23;668;-71
2022/12/10 01:29:30;;;;;;;;;;;;;;;11.58;72.50;100505.44;1261260;23;693;-70
2022/12/10 01:30:20;;;;;;;;;;;;;;;11.60;71.87;100506.16;1261248;23;583;-71
2022/12/10 01:31:11;;;;;;;;;;;;;;;11.61;72.15;100499.03;1261237;23;581;-71
2022/12/10 01:32:01;;;;;;;;;;;;;;;11.63;72.10;100502.44;1262201;23;657;-71
2022/12/10 01:32:52;;;;;;;;;;;;;;;11.63;72.11;100502.44;1261308;23;642;-71
2022/12/10 01:33:42;;;;;;;;;;;;;;;11.65;72.00;100503.13;1261285;23;646;-71
2022/12/10 01:34:32;;;;;;;;;;;;;;;11.65;71.46;100506.66;1261336;23;584;-71
2022/12/10 01:35:23;;;;;;;;;;;;;;;11.64;72.05;100504.13;1261411;23;647;-71
2022/12/10 01:36:13;;;;;;;;;;;;;;;11.64;72.26;100504.13;1261332;23;606;-71
2022/12/10 01:37:04;;;;;;;;;;;;;;;11.61;72.22;100505.22;1261360;23;621;-71
2022/12/10 01:37:54;;;;;;;;;;;;;;;11.61;72.07;100505.22;1261314;23;610;-71
2022/12/10 01:38:45;;;;;;;;;;;;;;;11.57;71.61;100510.88;1261377;23;603;-71
2022/12/10 01:39:35;;;;;;;;;;;;;;;11.53;72.30;100506.72;1261511;23;615;-71
2022/12/10 01:40:26;;;;;;;;;;;;;;;11.53;71.68;100506.72;1261306;23;597;-71
2022/12/10 01:41:16;;;;;;;;;;;;;;;11.58;71.64;100513.44;1261425;23;641;-71
2022/12/10 01:42:06;;;;;;;;;;;;;;;11.59;72.05;100517.81;1261266;23;598;-71
2022/12/10 01:42:57;;;;;;;;;;;;;;;11.52;71.43;100518.38;1261241;23;692;-71
2022/12/10 01:43:47;;;;;;;;;;;;;;;11.39;71.27;100518.44;1261285;23;765;-71
2022/12/10 01:44:38;;;;;;;;;;;;;;;11.35;70.97;100525.81;1261287;23;742;-71
2022/12/10 01:45:28;;;;;;;;;;;;;;;11.35;71.75;100525.81;1261322;23;684;-71
2022/12/10 01:46:19;;;;;;;;;;;;;;;11.42;72.61;100518.22;1261228;23;639;-71
2022/12/10 01:47:09;;;;;;;;;;;;;;;11.47;71.93;100519.56;1262159;23;649;-71
2022/12/10 01:47:59;;;;;;;;;;;;;;;11.51;72.00;100519.34;1262025;23;1894;-71
2022/12/10 01:48:50;;;;;;;;;;;;;;;11.51;72.41;100520.19;1262041;23;677;-69
2022/12/10 01:49:40;;;;;;;;;;;;;;;11.52;72.47;100523.72;1262184;23;630;-71
2022/12/10 01:50:31;;;;;;;;;;;;;;;11.53;72.24;100525.41;1261002;23;1111;-71
2022/12/10 01:51:21;;;;;;;;;;;;;;;11.57;71.75;100529.56;1261370;23;700;-71
2022/12/10 01:52:12;;;;;;;;;;;;;;;11.58;71.95;100521.44;1261258;23;630;-71
2022/12/10 01:53:02;;;;;;;;;;;;;;;11.59;71.73;100530.31;1261199;23;689;-71
2022/12/10 01:53:53;;;;;;;;;;;;;;;11.56;71.98;100530.53;1261156;23;646;-70
2022/12/10 01:54:43;;;;;;;;;;;;;;;11.58;71.69;100529.44;1256809;23;642;-71
2022/12/10 01:55:34;;;;;;;;;;;;;;;11.57;71.06;100527.75;1254957;23;658;-71
2022/12/10 01:56:24;;;;;;;;;;;;;;;11.54;72.02;100527.97;1261285;23;622;-71
2022/12/10 01:57:15;;;;;;;;;;;;;;;11.53;72.22;100528.06;1261287;23;632;-71
2022/12/10 01:58:05;;;;;;;;;;;;;;;11.45;70.51;100529.50;1261310;23;623;-71
2022/12/10 01:58:56;;;;;;;;;;;;;;;11.41;71.82;100525.38;1261286;23;606;-71
2022/12/10 01:59:46;;;;;;;;;;;;;;;11.41;71.56;100538.69;1261343;23;658;-71
2022/12/10 02:00:36;;;;;;;;;;;;;;;11.33;70.87;100533.06;1261201;23;654;-71
2022/12/10 02:01:27;;;;;;;;;;;;;;;11.40;72.45;100539.66;1261383;23;642;-70
2022/12/10 02:02:17;;;;;;;;;;;;;;;11.41;71.86;100522.69;1261221;23;720;-68
2022/12/10 02:03:08;;;;;;;;;;;;;;;11.40;72.18;100542.34;1261127;23;610;-70
2022/12/10 02:03:58;;;;;;;;;;;;;;;11.39;71.74;100540.63;1261333;23;626;-71
2022/12/10 02:04:49;;;;;;;;;;;;;;;11.45;72.08;100532.19;1260604;23;605;-71
2022/12/10 02:05:39;;;;;;;;;;;;;;;11.48;72.10;100539.94;1262105;23;637;-72
2022/12/10 02:06:29;;;;;;;;;;;;;;;11.47;71.80;100538.22;1261170;23;646;-72
2022/12/10 02:07:20;;;;;;;;;;;;;;;11.50;71.65;100537.16;1261279;23;634;-70
2022/12/10 02:08:10;;;;;;;;;;;;;;;11.53;71.79;100534.28;1261142;23;1901;-71
2022/12/10 02:09:01;;;;;;;;;;;;;;;11.50;71.82;100534.50;1261219;23;594;-71
2022/12/10 02:09:51;;;;;;;;;;;;;;;11.50;72.01;100526.47;1261205;23;630;-71
2022/12/10 02:10:42;;;;;;;;;;;;;;;11.49;72.24;100536.31;1260412;23;644;-71
2022/12/10 02:11:32;;;;;;;;;;;;;;;11.49;71.56;100530.97;1261321;23;686;-71
2022/12/10 02:12:22;;;;;;;;;;;;;;;11.52;71.83;100529.03;1261324;23;639;-71
2022/12/10 02:13:13;;;;;;;;;;;;;;;11.48;72.28;100534.59;1261153;23;673;-70
2022/12/10 02:14:03;;;;;;;;;;;;;;;11.47;72.26;100527.56;1261307;23;599;-70
2022/12/10 02:14:54;;;;;;;;;;;;;;;11.47;71.45;100526.69;1261141;23;594;-70
2022/12/10 02:15:44;;;;;;;;;;;;;;;11.48;71.57;100523.94;1261401;23;638;-71
2022/12/10 02:16:35;;;;;;;;;;;;;;;11.48;72.36;100520.41;1261311;23;669;-70
2022/12/10 02:17:25;;;;;;;;;;;;;;;11.51;71.65;100524.66;1261337;23;614;-70
2022/12/10 02:18:15;;;;;;;;;;;;;;;11.49;71.80;100525.63;1261241;23;638;-70
2022/12/10 02:19:06;;;;;;;;;;;;;;;11.48;72.40;100523.94;1261452;23;698;-70
2022/12/10 02:19:56;;;;;;;;;;;;;;;11.48;71.90;100526.59;1261245;23;653;-70
2022/12/10 02:20:47;;;;;;;;;;;;;;;11.47;71.64;100524.88;1261171;23;686;-70
2022/12/10 02:21:37;;;;;;;;;;;;;;;11.48;72.30;100517.72;1261268;23;669;-70
2022/12/10 02:22:28;;;;;;;;;;;;;;;11.48;72.12;100523.94;1261300;23;598;-70
2022/12/10 02:23:18;;;;;;;;;;;;;;;11.42;71.51;100526.22;1261179;23;673;-71
2022/12/10 02:24:10;;;;;;;;;;;;;;;11.43;72.09;100519.91;1261143;23;634;-71
2022/12/10 02:25:01;;;;;;;;;;;;;;;11.45;72.26;100521.50;1261292;23;662;-70
2022/12/10 02:25:51;;;;;;;;;;;;;;;11.46;72.23;100509.84;1261193;23;666;-70
2022/12/10 02:26:42;;;;;;;;;;;;;;;11.44;71.87;100516.28;1261178;23;630;-70
2022/12/10 02:27:32;;;;;;;;;;;;;;;11.46;72.01;100517.03;1262064;23;625;-70
2022/12/10 02:28:23;;;;;;;;;;;;;;;11.40;71.73;100521.00;1262021;23;1877;-70
2022/12/10 02:29:13;;;;;;;;;;;;;;;11.43;72.17;100515.44;1261161;23;685;-70
2022/12/10 02:30:03;;;;;;;;;;;;;;;11.41;71.37;100516.50;1256711;23;660;-70
2022/12/10 02:30:54;;;;;;;;;;;;;;;11.39;71.62;100521.94;1254913;23;621;-70
2022/12/10 02:31:44;;;;;;;;;;;;;;;11.38;72.29;100517.56;1254739;23;680;-70
2022/12/10 02:32:35;;;;;;;;;;;;;;;11.43;72.02;100519.91;1254018;23;613;-70
2022/12/10 02:33:25;;;;;;;;;;;;;;;11.42;71.57;100518.22;1259788;23;627;-71
2022/12/10 02:34:16;;;;;;;;;;;;;;;11.41;72.48;100514.69;1262233;23;594;-70
2022/12/10 02:35:06;;;;;;;;;;;;;;;11.40;71.88;100518.31;1261367;23;641;-70
2022/12/10 02:35:56;;;;;;;;;;;;;;;11.39;71.28;100523.75;1261207;23;658;-70
2022/12/10 02:36:47;;;;;;;;;;;;;;;11.40;71.43;100526.31;1261204;23;665;-70
2022/12/10 02:37:37;;;;;;;;;;;;;;;11.40;71.75;100526.31;1262200;23;660;-70
2022/12/10 02:38:28;;;;;;;;;;;;;;;11.37;72.04;100525.69;1261199;23;660;-70
2022/12/10 02:39:18;;;;;;;;;;;;;;;11.36;72.00;100527.50;1262014;23;629;-70
2022/12/10 02:40:09;;;;;;;;;;;;;;;11.31;71.75;100518.97;1261205;23;637;-70
2022/12/10 02:40:59;;;;;;;;;;;;;;;11.39;72.67;100524.63;1256465;23;724;-70
2022/12/10 02:41:50;;;;;;;;;;;;;;;11.42;71.64;100520.88;1254815;23;614;-70
2022/12/10 02:42:40;;;;;;;;;;;;;;;11.43;72.23;100522.59;1261174;23;690;-70
2022/12/10 02:43:30;;;;;;;;;;;;;;;11.41;71.48;100527.19;1261220;23;660;-69
2022/12/10 02:44:21;;;;;;;;;;;;;;;11.41;71.83;100525.38;1261263;23;658;-70
2022/12/10 02:45:11;;;;;;;;;;;;;;;11.40;72.24;100525.47;1261256;23;618;-69
2022/12/10 02:46:02;;;;;;;;;;;;;;;11.41;72.48;100528.03;1261201;23;646;-69
2022/12/10 02:46:52;;;;;;;;;;;;;;;11.40;71.72;100529.00;1261257;23;673;-70
2022/12/10 02:47:42;;;;;;;;;;;;;;;11.40;72.30;100523.66;1261757;23;654;-70
2022/12/10 02:48:33;;;;;;;;;;;;;;;11.39;71.94;100523.75;1262512;23;634;-70
2022/12/10 02:49:23;;;;;;;;;;;;;;;11.40;72.51;100522.81;1261652;23;602;-70
2022/12/10 02:50:14;;;;;;;;;;;;;;;11.40;71.83;100526.31;1261490;23;1216;-70
2022/12/10 02:51:04;;;;;;;;;;;;;;;11.41;72.36;100528.03;1261647;23;640;-70
2022/12/10 02:51:55;;;;;;;;;;;;;;;11.42;71.44;100528.88;1261696;23;634;-70
2022/12/10 02:52:45;;;;;;;;;;;;;;;11.45;71.92;100529.50;1256912;23;685;-70
2022/12/10 02:53:35;;;;;;;;;;;;;;;11.39;70.99;100531.78;1255313;23;736;-70
2022/12/10 02:54:26;;;;;;;;;;;;;;;11.33;71.83;100530.41;1261478;23;639;-70
2022/12/10 02:55:16;;;;;;;;;;;;;;;11.35;72.32;100532.94;1261722;23;653;-71
2022/12/10 02:56:07;;;;;;;;;;;;;;;11.36;71.89;100534.66;1261575;23;622;-70
2022/12/10 02:56:57;;;;;;;;;;;;;;;11.38;72.33;100532.72;1261653;23;677;-70
2022/12/10 02:57:48;;;;;;;;;;;;;;;11.38;71.93;100535.41;1262490;23;651;-70
2022/12/10 02:58:38;;;;;;;;;;;;;;;11.38;72.33;100533.59;1261532;23;676;-70
2022/12/10 02:59:28;;;;;;;;;;;;;;;11.34;71.98;100537.44;1261656;23;680;-70
2022/12/10 03:00:19;;;;;;;;;;;;;;;11.34;71.65;100536.59;1261688;23;610;-71
2022/12/10 03:01:09;;;;;;;;;;;;;;;11.35;72.16;100532.94;1261609;23;666;-70
2022/12/10 03:02:00;;;;;;;;;;;;;;;11.37;72.23;100534.53;1261674;23;681;-70
2022/12/10 03:02:50;;;;;;;;;;;;;;;11.40;72.06;100539.66;1261036;23;662;-70
2022/12/10 03:03:41;;;;;;;;;;;;;;;11.40;71.61;100541.47;1261626;23;641;-70
2022/12/10 03:04:31;;;;;;;;;;;;;;;11.41;71.57;100545.84;1261621;23;665;-70
2022/12/10 03:05:22;;;;;;;;;;;;;;;11.37;72.25;100541.69;1261659;23;657;-70
2022/12/10 03:06:12;;;;;;;;;;;;;;;11.37;72.33;100537.22;1261646;23;666;-70
2022/12/10 03:07:03;;;;;;;;;;;;;;;11.36;72.16;100535.50;1261603;23;822;-70
2022/12/10 03:07:53;;;;;;;;;;;;;;;11.32;71.74;100536.69;1261692;23;823;-70
2022/12/10 03:08:43;;;;;;;;;;;;;;;11.33;72.46;100533.06;1261704;23;634;-70
2022/12/10 03:09:34;;;;;;;;;;;;;;;11.35;72.08;100541.81;1262536;23;645;-70
2022/12/10 03:10:24;;;;;;;;;;;;;;;11.35;72.25;100532.94;1261696;23;607;-70
2022/12/10 03:11:15;;;;;;;;;;;;;;;11.33;71.64;100533.06;1261806;23;652;-70
2022/12/10 03:12:05;;;;;;;;;;;;;;;11.35;71.67;100531.13;1261579;23;725;-70
2022/12/10 03:12:56;;;;;;;;;;;;;;;11.35;71.92;100533.81;1261721;23;598;-70
2022/12/10 03:13:46;;;;;;;;;;;;;;;11.37;71.92;100536.34;1261666;23;662;-69
2022/12/10 03:14:37;;;;;;;;;;;;;;;11.36;71.77;100532.84;1261653;23;646;-70
2022/12/10 03:15:27;;;;;;;;;;;;;;;11.36;71.80;100535.50;1261601;23;673;-70
2022/12/10 03:16:18;;;;;;;;;;;;;;;11.38;72.41;100535.41;1261554;23;677;-70
2022/12/10 03:17:08;;;;;;;;;;;;;;;11.34;72.32;100533.91;1261081;23;630;-70
2022/12/10 03:17:59;;;;;;;;;;;;;;;11.36;72.12;100534.66;1261579;23;626;-70
2022/12/10 03:18:49;;;;;;;;;;;;;;;11.36;71.84;100530.16;1261574;23;657;-70
2022/12/10 03:19:39;;;;;;;;;;;;;;;11.36;71.84;100523.97;1261644;23;622;-70
2022/12/10 03:20:30;;;;;;;;;;;;;;;11.34;71.99;100525.91;1262296;23;665;-70
2022/12/10 03:21:20;;;;;;;;;;;;;;;11.34;72.03;100525.91;1261648;23;678;-70
2022/12/10 03:22:11;;;;;;;;;;;;;;;11.36;72.50;100522.16;1261519;23;595;-69
2022/12/10 03:23:01;;;;;;;;;;;;;;;11.36;72.57;100524.84;1261590;23;650;-69
2022/12/10 03:23:51;;;;;;;;;;;;;;;11.34;71.60;100520.56;1261547;23;709;-69
2022/12/10 03:24:42;;;;;;;;;;;;;;;11.34;72.58;100525.91;1261564;23;658;-70
2022/12/10 03:25:32;;;;;;;;;;;;;;;11.28;70.97;100529.91;1261571;23;645;-70
2022/12/10 03:26:23;;;;;;;;;;;;;;;11.25;70.92;100529.25;1261765;23;630;-70
2022/12/10 03:27:13;;;;;;;;;;;;;;;11.28;71.69;100532.56;1261574;23;622;-70
2022/12/10 03:28:04;;;;;;;;;;;;;;;11.31;72.04;100528.78;1261420;23;1928;-70
2022/12/10 03:28:54;;;;;;;;;;;;;;;11.35;71.44;100528.47;1261670;23;639;-70
2022/12/10 03:29:44;;;;;;;;;;;;;;;11.37;71.69;100531.88;1261487;23;658;-69
2022/12/10 03:30:35;;;;;;;;;;;;;;;11.38;71.59;100530.06;1262511;23;614;-70
2022/12/10 03:31:25;;;;;;;;;;;;;;;11.34;72.19;100524.09;1261667;23;642;-70
2022/12/10 03:32:16;;;;;;;;;;;;;;;11.30;72.18;100529.75;1261599;23;661;-70
2022/12/10 03:33:06;;;;;;;;;;;;;;;11.32;71.75;100528.69;1261476;23;614;-69
2022/12/10 03:33:57;;;;;;;;;;;;;;;11.35;71.51;100520.47;1261538;23;692;-70
2022/12/10 03:34:47;;;;;;;;;;;;;;;11.36;71.73;100519.50;1261576;23;638;-70
2022/12/10 03:35:38;;;;;;;;;;;;;;;11.35;71.28;100528.47;1261517;23;649;-70
2022/12/10 03:36:28;;;;;;;;;;;;;;;11.33;72.03;100525.06;1261619;23;676;-70
2022/12/10 03:37:18;;;;;;;;;;;;;;;11.32;72.30;100520.69;1261493;23;673;-70
2022/12/10 03:38:09;;;;;;;;;;;;;;;11.33;71.54;100518.88;1261519;23;659;-70
2022/12/10 03:38:59;;;;;;;;;;;;;;;11.30;72.32;100519.94;1262309;23;609;-70
2022/12/10 03:39:50;;;;;;;;;;;;;;;11.33;71.60;100518.88;1261604;23;602;-70
2022/12/10 03:40:40;;;;;;;;;;;;;;;11.30;72.01;100509.28;1261565;23;638;-70
2022/12/10 03:41:31;;;;;;;;;;;;;;;11.32;71.52;100518.00;1261750;23;619;-70
2022/12/10 03:42:21;;;;;;;;;;;;;;;11.31;72.03;100510.97;1261621;23;639;-70
2022/12/10 03:43:11;;;;;;;;;;;;;;;11.34;72.45;100509.91;1262509;23;602;-71
2022/12/10 03:44:02;;;;;;;;;;;;;;;11.33;72.30;100505.53;1261477;23;603;-71
2022/12/10 03:44:52;;;;;;;;;;;;;;;11.31;71.62;100505.63;1262437;23;642;-70
2022/12/10 03:45:43;;;;;;;;;;;;;;;11.33;71.65;100508.19;1261427;23;650;-70
2022/12/10 03:46:33;;;;;;;;;;;;;;;11.32;71.60;100506.50;1261535;23;665;-70
2022/12/10 03:47:24;;;;;;;;;;;;;;;11.35;71.71;100508.94;1261584;23;599;-70
2022/12/10 03:48:14;;;;;;;;;;;;;;;11.35;71.98;100506.28;1261511;23;1932;-70
2022/12/10 03:49:05;;;;;;;;;;;;;;;11.33;71.24;100508.19;1261553;23;642;-70
2022/12/10 03:49:55;;;;;;;;;;;;;;;11.31;71.82;100504.78;1261459;23;646;-70
2022/12/10 03:50:46;;;;;;;;;;;;;;;11.32;71.67;100501.16;1261419;23;619;-70
2022/12/10 03:51:36;;;;;;;;;;;;;;;11.30;71.46;100503.94;1261422;23;665;-71
2022/12/10 03:52:27;;;;;;;;;;;;;;;11.34;72.11;100500.09;1262506;23;626;-70
2022/12/10 03:53:17;;;;;;;;;;;;;;;11.33;72.12;100498.38;1261576;23;618;-70
2022/12/10 03:54:07;;;;;;;;;;;;;;;11.34;72.21;100502.75;1261495;23;633;-70
2022/12/10 03:54:58;;;;;;;;;;;;;;;11.31;71.83;100504.78;1261569;23;614;-70
2022/12/10 03:55:48;;;;;;;;;;;;;;;11.30;71.88;100503.09;1261521;23;657;-70
2022/12/10 03:56:39;;;;;;;;;;;;;;;11.19;71.05;100505.69;1261702;23;697;-70
2022/12/10 03:57:29;;;;;;;;;;;;;;;11.23;72.32;100502.69;1262445;23;692;-70
2022/12/10 03:58:20;;;;;;;;;;;;;;;11.23;72.17;100500.03;1262388;23;652;-70
2022/12/10 03:59:10;;;;;;;;;;;;;;;11.25;72.20;100500.78;1261554;23;625;-70
2022/12/10 04:00:00;;;;;;;;;;;;;;;11.27;72.00;100504.19;1261448;23;653;-70
2022/12/10 04:00:51;;;;;;;;;;;;;;;11.24;71.43;100495.56;1256363;23;637;-70
2022/12/10 04:01:41;;;;;;;;;;;;;;;11.20;71.09;100508.25;1255170;23;641;-70
2022/12/10 04:02:32;;;;;;;;;;;;;;;11.22;71.92;100503.66;1261397;23;610;-70
2022/12/10 04:03:22;;;;;;;;;;;;;;;11.24;72.10;100508.88;1262314;23;688;-70
2022/12/10 04:04:13;;;;;;;;;;;;;;;11.23;72.21;100513.38;1261340;23;637;-70
2022/12/10 04:05:04;;;;;;;;;;;;;;;11.23;71.56;100512.53;1261508;23;650;-69
2022/12/10 04:05:55;;;;;;;;;;;;;;;11.27;71.42;100519.34;1261592;23;622;-70
2022/12/10 04:06:45;;;;;;;;;;;;;;;11.24;72.04;100515.06;1262173;23;650;-70
2022/12/10 04:07:36;;;;;;;;;;;;;;;11.27;71.82;100512.19;1261412;23;607;-69
2022/12/10 04:08:26;;;;;;;;;;;;;;;11.23;71.32;100516.03;1261389;23;1948;-69
2022/12/10 04:09:16;;;;;;;;;;;;;;;11.20;71.45;100510.06;1261410;23;685;-70
2022/12/10 04:10:07;;;;;;;;;;;;;;;11.20;71.37;100513.59;1261464;23;630;-70
2022/12/10 04:10:57;;;;;;;;;;;;;;;11.23;72.19;100518.72;1261535;23;677;-70
2022/12/10 04:11:48;;;;;;;;;;;;;;;11.28;71.29;100510.38;1261504;23;611;-70
2022/12/10 04:12:38;;;;;;;;;;;;;;;11.29;71.56;100515.56;1261448;23;701;-70
2022/12/10 04:16:56;;;;;;;;;;;;;;;11.33;72.00;100521.53;1262214;23;621;-69
2022/12/10 04:17:47;;;;;;;;;;;;;;;11.31;71.61;100513.63;1262274;23;677;-69
2022/12/10 04:18:37;;;;;;;;;;;;;;;11.31;71.44;100523.47;1261483;23;681;-70
2022/12/10 04:19:28;;;;;;;;;;;;;;;11.30;71.65;100513.75;1257025;23;625;-70
2022/12/10 04:27:13;;;;;;;;;;;;;;;11.28;70.43;100518.38;1262326;23;610;-70
2022/12/10 04:28:04;;;;;;;;;;;;;;;11.10;69.81;100517.91;1261474;23;1932;-70
2022/12/10 04:28:54;;;;;;;;;;;;;;;11.04;71.38;100515.66;1261521;23;654;-70
2022/12/10 04:29:45;;;;;;;;;;;;;;;11.07;71.32;100516.31;1260899;23;630;-70
2022/12/10 04:30:35;;;;;;;;;;;;;;;11.12;71.67;100521.28;1262220;23;649;-70
2022/12/10 04:31:25;;;;;;;;;;;;;;;11.12;71.25;100519.47;1261387;23;698;-70
2022/12/10 04:32:16;;;;;;;;;;;;;;;11.17;71.76;100524.47;1261420;23;642;-70
2022/12/10 04:33:06;;;;;;;;;;;;;;;11.16;72.35;100519.25;1261549;23;642;-70
2022/12/10 04:33:57;;;;;;;;;;;;;;;11.18;71.73;100526.19;1261507;23;625;-70
2022/12/10 04:34:47;;;;;;;;;;;;;;;11.19;71.50;100527.88;1262233;23;672;-70
2022/12/10 04:35:38;;;;;;;;;;;;;;;11.18;71.57;100531.50;1261263;23;700;-70
2022/12/10 04:36:28;;;;;;;;;;;;;;;11.14;71.56;100525.53;1261522;23;654;-70